createdAt,value
2024-01-19T04:02:37.286Z,12.57
2024-01-19T04:05:05.440Z,13.30
2024-01-19T04:07:32.732Z,11.47
2024-01-19T04:09:59.956Z,10.37
2024-01-19T04:12:28.504Z,12.47
2024-01-19T04:14:55.870Z,13.37
2024-01-19T04:17:23.548Z,10.93
2024-01-19T04:19:50.918Z,10.60
2024-01-19T04:22:18.177Z,10.17
2024-01-19T04:24:45.437Z,10.57
2024-01-19T04:27:12.841Z,12.47
2024-01-19T04:29:40.177Z,10.90
2024-01-19T04:32:07.492Z,11.23
2024-01-19T04:34:35.021Z,10.60
2024-01-19T04:37:02.385Z,12.03
2024-01-19T04:39:29.635Z,12.50
2024-01-19T04:41:57.156Z,12.43
2024-01-19T04:44:24.531Z,11.70
2024-01-19T04:46:51.838Z,11.33
2024-01-19T04:49:19.248Z,12.57
2024-01-19T04:51:46.562Z,12.13
2024-01-19T04:54:13.892Z,12.27
2024-01-19T04:56:42.454Z,10.67
2024-01-19T04:59:11.434Z,12.90
2024-01-19T05:01:38.768Z,10.97
2024-01-19T05:04:06.090Z,13.80
2024-01-19T05:06:33.485Z,10.50
2024-01-19T05:09:00.946Z,10.53
2024-01-19T05:11:28.485Z,12.43
2024-01-19T05:13:55.772Z,10.10
2024-01-19T05:16:23.046Z,9.77
2024-01-19T05:18:50.348Z,9.87
2024-01-19T05:21:17.602Z,10.63
2024-01-19T05:23:44.899Z,10.53
2024-01-19T05:26:12.149Z,9.97
2024-01-19T05:28:40.474Z,9.53
2024-01-19T05:31:07.843Z,10.57
2024-01-19T05:33:38.680Z,12.00
2024-01-19T05:36:07.726Z,10.97
2024-01-19T05:38:35.115Z,10.17
2024-01-19T05:41:03.099Z,10.37
2024-01-19T05:43:31.464Z,10.00
2024-01-19T05:45:58.794Z,10.30
2024-01-19T05:48:26.859Z,10.00
2024-01-19T05:50:55.145Z,9.87
2024-01-19T05:53:22.766Z,9.60
2024-01-19T05:55:50.122Z,10.73
2024-01-19T05:58:17.529Z,9.90
2024-01-19T06:00:44.989Z,11.43
2024-01-19T06:03:12.692Z,11.13
2024-01-19T06:05:40.153Z,12.23
2024-01-19T06:08:07.591Z,14.37
2024-01-19T06:10:35.330Z,10.70
2024-01-19T06:13:02.697Z,13.90
2024-01-19T06:15:29.949Z,14.13
2024-01-19T06:17:57.393Z,13.10
2024-01-19T06:20:24.830Z,12.13
2024-01-19T06:22:52.105Z,11.37
2024-01-19T06:25:19.869Z,11.17
2024-01-19T06:27:47.170Z,12.57
2024-01-19T06:30:14.920Z,11.90
2024-01-19T06:32:42.551Z,11.57
2024-01-19T06:35:10.114Z,10.00
2024-01-19T06:37:40.478Z,13.43
2024-01-19T06:40:11.905Z,11.20
2024-01-19T06:42:39.251Z,9.97
2024-01-19T06:45:07.101Z,13.97
2024-01-19T06:47:34.633Z,9.70
2024-01-19T06:50:02.553Z,10.10
2024-01-19T06:52:29.817Z,9.90
2024-01-19T06:54:57.221Z,15.00
2024-01-19T06:57:24.522Z,11.70
2024-01-19T06:59:51.804Z,10.17
2024-01-19T07:02:19.377Z,10.13
2024-01-19T07:04:46.706Z,11.43
2024-01-19T07:07:14.130Z,9.03
2024-01-19T07:09:41.470Z,10.13
2024-01-19T07:12:08.838Z,10.70
2024-01-19T07:14:36.775Z,11.07
2024-01-19T07:17:04.366Z,10.30
2024-01-19T07:19:31.731Z,9.23
2024-01-19T07:21:59.061Z,9.47
2024-01-19T07:24:27.553Z,9.67
2024-01-19T07:26:54.831Z,9.30
2024-01-19T07:29:22.161Z,8.60
2024-01-19T07:31:49.514Z,10.17
2024-01-19T07:34:17.084Z,11.30
2024-01-19T07:36:46.012Z,8.30
2024-01-19T07:39:13.473Z,9.10
2024-01-19T07:41:42.024Z,17.60
2024-01-19T07:44:09.436Z,27.97
2024-01-19T07:46:37.136Z,27.07
2024-01-19T07:49:04.543Z,25.07
2024-01-19T07:51:31.835Z,16.10
2024-01-19T07:53:59.447Z,17.93
2024-01-19T07:56:26.880Z,16.33
2024-01-19T07:58:54.286Z,16.30
2024-01-19T08:01:21.999Z,12.93
2024-01-19T08:03:49.537Z,14.57
2024-01-19T08:06:16.904Z,15.70
2024-01-19T08:08:44.245Z,15.63
2024-01-19T08:11:11.617Z,12.57
2024-01-19T08:13:39.295Z,13.20
2024-01-19T08:16:08.701Z,11.53
2024-01-19T08:18:37.778Z,10.97
2024-01-19T08:21:06.256Z,11.53
2024-01-19T08:23:34.821Z,11.77
2024-01-19T08:26:02.850Z,10.10
2024-01-19T08:28:30.170Z,9.27
2024-01-19T08:30:57.562Z,9.00
2024-01-19T08:33:24.977Z,10.23
2024-01-19T08:35:52.509Z,10.73
2024-01-19T08:38:19.868Z,9.53
2024-01-19T08:40:47.173Z,9.30
2024-01-19T08:43:14.509Z,9.43
2024-01-19T08:45:41.850Z,9.77
2024-01-19T08:48:09.990Z,8.93
2024-01-19T08:50:37.428Z,11.53
2024-01-19T08:53:05.275Z,9.27
2024-01-19T08:55:32.546Z,8.47
2024-01-19T08:58:00.182Z,8.40
2024-01-19T09:00:28.172Z,9.03
2024-01-19T09:03:00.627Z,8.90
2024-01-19T09:05:31.939Z,9.00
2024-01-19T09:07:59.569Z,9.27
2024-01-19T09:10:27.306Z,8.97
2024-01-19T09:12:54.851Z,8.70
2024-01-19T09:15:22.359Z,8.57
2024-01-19T09:17:49.696Z,8.90
2024-01-19T09:20:17.225Z,10.43
2024-01-19T09:22:44.616Z,11.17
2024-01-19T09:25:14.342Z,10.40
2024-01-19T09:27:41.981Z,10.30
2024-01-19T09:30:09.818Z,9.37
2024-01-19T09:32:41.425Z,9.77
2024-01-19T09:35:09.382Z,10.30
2024-01-19T09:37:36.644Z,11.10
2024-01-19T09:40:04.108Z,10.67
2024-01-19T09:42:34.803Z,9.93
2024-01-19T09:45:05.517Z,9.13
2024-01-19T09:48:12.312Z,11.30
2024-01-19T09:50:41.148Z,13.10
2024-01-19T09:53:23.256Z,11.60
2024-01-19T09:55:50.936Z,10.97
2024-01-19T09:58:21.859Z,11.97
2024-01-19T10:00:49.467Z,10.70
2024-01-19T10:03:19.012Z,9.77
2024-01-19T10:05:49.782Z,9.83
2024-01-19T10:08:18.405Z,10.30
2024-01-19T10:10:46.046Z,11.70
2024-01-19T10:13:13.471Z,10.67
2024-01-19T10:15:44.389Z,10.23
2024-01-19T10:18:12.152Z,11.70
2024-01-19T10:20:41.249Z,11.33
2024-01-19T10:23:23.088Z,10.87
2024-01-19T10:25:51.784Z,9.40
2024-01-19T10:28:36.771Z,9.97
2024-01-19T10:31:18.560Z,9.60
2024-01-19T10:33:50.616Z,10.80
2024-01-19T10:36:18.100Z,9.20
2024-01-19T10:38:45.364Z,9.53
2024-01-19T10:41:17.090Z,9.73
2024-01-19T10:43:44.648Z,9.77
2024-01-19T10:46:23.248Z,10.27
2024-01-19T10:48:51.857Z,14.03
2024-01-19T10:51:22.605Z,10.20
2024-01-19T10:53:51.043Z,13.87
2024-01-19T10:56:22.416Z,9.87
2024-01-19T10:58:50.015Z,10.90
2024-01-19T11:01:18.749Z,10.20
2024-01-19T11:03:46.310Z,13.20
2024-01-19T11:06:14.423Z,11.33
2024-01-19T11:08:41.926Z,10.73
2024-01-19T11:11:10.856Z,9.53
2024-01-19T11:13:41.430Z,9.17
2024-01-19T11:16:13.271Z,12.33
2024-01-19T11:18:40.863Z,9.10
2024-01-19T11:21:08.527Z,9.43
2024-01-19T11:23:36.200Z,8.33
2024-01-19T11:26:25.630Z,9.03
2024-01-19T11:29:20.404Z,9.53
2024-01-19T11:31:49.584Z,9.60
2024-01-19T11:34:49.813Z,9.03
2024-01-19T11:37:45.891Z,9.70
2024-01-19T11:40:25.032Z,9.43
2024-01-19T11:42:52.586Z,8.60
2024-01-19T11:45:41.127Z,8.67
2024-01-19T11:48:12.578Z,7.20
2024-01-19T11:50:48.388Z,7.63
2024-01-19T11:53:16.076Z,7.60
2024-01-19T11:55:48.619Z,7.53
2024-01-19T11:58:32.052Z,7.70
2024-01-19T12:01:01.862Z,7.40
2024-01-19T12:03:29.358Z,7.40
2024-01-19T12:06:01.235Z,7.73
2024-01-19T12:08:29.761Z,7.90
2024-01-19T12:11:03.812Z,8.70
2024-01-19T12:13:37.053Z,9.00
2024-01-19T12:16:05.380Z,9.33
2024-01-19T12:18:35.852Z,8.50
2024-01-19T12:21:03.689Z,8.60
2024-01-19T12:23:34.050Z,8.00
2024-01-19T12:26:04.954Z,9.40
2024-01-19T12:28:35.456Z,8.07
2024-01-19T12:31:03.166Z,7.50
2024-01-19T12:33:30.645Z,7.67
2024-01-19T12:36:07.987Z,7.10
2024-01-19T12:38:35.921Z,7.13
2024-01-19T12:41:05.222Z,5.97
2024-01-19T12:43:33.683Z,7.03
2024-01-19T12:46:02.945Z,7.17
2024-01-19T12:48:35.249Z,7.23
2024-01-19T12:51:04.899Z,7.37
2024-01-19T12:53:33.516Z,7.23
2024-01-19T12:56:27.040Z,8.03
2024-01-19T12:59:09.851Z,7.93
2024-01-19T13:01:37.760Z,7.20
2024-01-19T13:04:05.726Z,7.10
2024-01-19T13:06:33.219Z,6.53
2024-01-19T13:09:01.269Z,7.23
2024-01-19T13:11:28.657Z,7.03
2024-01-19T13:14:05.392Z,7.20
2024-01-19T13:16:33.551Z,7.10
2024-01-19T13:19:05.529Z,6.87
2024-01-19T13:21:33.318Z,7.30
2024-01-19T13:24:00.902Z,7.17
2024-01-19T13:26:28.358Z,7.43
2024-01-19T13:28:55.761Z,6.90
2024-01-19T13:31:23.569Z,6.93
2024-01-19T13:33:50.932Z,8.03
2024-01-19T13:36:20.033Z,7.50
2024-01-19T13:38:47.737Z,8.57
2024-01-19T13:41:16.033Z,21.47
2024-01-19T13:43:46.096Z,7.10
2024-01-19T13:46:17.035Z,7.00
2024-01-19T13:48:44.742Z,7.70
2024-01-19T13:51:12.340Z,7.70
2024-01-19T13:53:39.692Z,8.00
2024-01-19T13:56:08.533Z,8.23
2024-01-19T13:58:37.870Z,8.47
2024-01-19T14:01:09.588Z,9.00
2024-01-19T14:03:37.182Z,9.23
2024-01-19T14:06:05.791Z,9.03
2024-01-19T14:08:34.689Z,9.33
2024-01-19T14:11:03.791Z,9.53
2024-01-19T14:13:31.469Z,9.60
2024-01-19T14:15:59.531Z,10.70
2024-01-19T14:18:29.651Z,10.13
2024-01-19T14:20:56.898Z,10.17
2024-01-19T14:23:24.251Z,9.50
2024-01-19T14:25:53.011Z,10.67
2024-01-19T14:28:20.290Z,9.90
2024-01-19T14:30:48.889Z,9.73
2024-01-19T14:33:16.369Z,10.07
2024-01-19T14:35:45.822Z,10.00
2024-01-19T14:38:13.275Z,8.93
2024-01-19T14:40:40.593Z,9.77
2024-01-19T14:43:08.729Z,9.20
2024-01-19T14:45:35.967Z,9.30
2024-01-19T14:48:05.054Z,9.77
2024-01-19T14:50:32.709Z,8.43
2024-01-19T14:53:02.989Z,9.30
2024-01-19T14:55:31.119Z,8.57
2024-01-19T14:57:59.456Z,7.90
2024-01-19T15:00:27.821Z,20.03
2024-01-19T15:02:55.087Z,18.43
2024-01-19T15:05:22.317Z,11.67
2024-01-19T15:07:49.613Z,10.87
2024-01-19T15:10:17.122Z,12.20
2024-01-19T15:12:44.487Z,12.23
2024-01-19T15:15:12.419Z,9.70
2024-01-19T15:17:39.986Z,10.00
2024-01-19T15:20:08.206Z,10.43
2024-01-19T15:22:35.967Z,10.30
2024-01-19T15:25:03.548Z,11.67
2024-01-19T15:27:30.746Z,10.33
2024-01-19T15:29:58.056Z,10.70
2024-01-19T15:32:25.489Z,11.13
2024-01-19T15:34:52.918Z,11.37
2024-01-19T15:37:20.113Z,12.53
2024-01-19T15:39:47.415Z,15.90
2024-01-19T15:42:14.728Z,16.50
2024-01-19T15:44:45.893Z,17.23
2024-01-19T15:47:14.951Z,17.03
2024-01-19T15:49:42.705Z,15.90
2024-01-19T15:52:11.988Z,17.23
2024-01-19T15:54:42.301Z,15.03
2024-01-19T15:57:09.600Z,15.40
2024-01-19T15:59:36.830Z,16.33
2024-01-19T16:02:04.457Z,15.43
2024-01-19T16:04:31.747Z,13.33
2024-01-19T16:06:58.966Z,12.63
2024-01-19T16:09:26.247Z,16.93
2024-01-19T16:11:53.443Z,20.90
2024-01-19T16:14:20.688Z,16.17
2024-01-19T16:16:48.000Z,19.23
2024-01-19T16:19:15.766Z,19.60
2024-01-19T16:21:43.059Z,13.60
2024-01-19T16:24:11.690Z,12.60
2024-01-19T16:26:43.899Z,15.27
2024-01-19T16:29:11.424Z,15.23
2024-01-19T16:31:38.701Z,12.30
2024-01-19T16:34:10.680Z,12.17
2024-01-19T16:36:41.441Z,12.57
2024-01-19T16:39:10.138Z,10.97
2024-01-19T16:41:44.669Z,12.47
2024-01-19T16:44:12.676Z,12.50
2024-01-19T16:46:40.234Z,13.10
2024-01-19T16:49:07.640Z,14.20
2024-01-19T16:51:35.551Z,12.10
2024-01-19T16:54:02.951Z,12.87
2024-01-19T16:56:33.288Z,13.30
2024-01-19T16:59:02.041Z,16.13
2024-01-19T17:01:31.751Z,13.30
2024-01-19T17:04:01.068Z,14.07
2024-01-19T17:06:29.327Z,15.53
2024-01-19T17:08:59.437Z,14.23
2024-01-19T17:11:28.993Z,12.10
2024-01-19T17:13:56.790Z,14.57
2024-01-19T17:16:25.566Z,13.97
2024-01-19T17:18:53.416Z,12.70
2024-01-19T17:21:20.763Z,11.50
2024-01-19T17:23:48.095Z,12.73
2024-01-19T17:26:15.654Z,11.83
2024-01-19T17:28:44.808Z,11.10
2024-01-19T17:31:20.366Z,10.90
2024-01-19T17:33:57.975Z,12.37
2024-01-19T17:36:35.840Z,14.03
2024-01-19T17:39:03.930Z,14.27
2024-01-19T17:41:31.578Z,11.77
2024-01-19T17:43:59.174Z,14.60
2024-01-19T17:46:26.913Z,12.00
2024-01-19T17:48:54.573Z,13.00
2024-01-19T17:51:22.680Z,14.20
2024-01-19T17:53:54.974Z,15.80
2024-01-19T17:56:22.805Z,18.30
2024-01-19T17:58:50.188Z,9.87
2024-01-19T18:01:17.520Z,10.07
2024-01-19T18:03:44.981Z,9.03
2024-01-19T18:06:12.796Z,9.67
2024-01-19T18:08:40.555Z,13.77
2024-01-19T18:11:07.902Z,13.13
2024-01-19T18:13:36.842Z,13.13
2024-01-19T18:16:05.327Z,13.03
2024-01-19T18:18:36.206Z,16.03
2024-01-19T18:21:06.178Z,16.53
2024-01-19T18:23:33.529Z,17.33
2024-01-19T18:26:01.123Z,15.60
2024-01-19T18:28:28.634Z,17.60
2024-01-19T18:30:56.125Z,20.37
2024-01-19T18:33:23.897Z,19.93
2024-01-19T18:35:52.300Z,23.37
2024-01-19T18:38:19.646Z,28.53
2024-01-19T18:40:46.948Z,21.33
2024-01-19T18:43:14.228Z,28.37
2024-01-19T18:45:41.492Z,35.23
2024-01-19T18:48:08.987Z,33.27
2024-01-19T18:50:36.359Z,32.30
2024-01-19T18:53:03.771Z,37.97
2024-01-19T18:55:31.461Z,33.93
2024-01-19T18:58:06.513Z,36.57
2024-01-19T19:00:36.711Z,37.03
2024-01-19T19:03:05.531Z,35.30
2024-01-19T19:05:34.192Z,45.53
2024-01-19T19:08:05.745Z,36.43
2024-01-19T19:10:33.362Z,27.80
2024-01-19T19:13:00.909Z,31.30
2024-01-19T19:15:28.487Z,24.07
2024-01-19T19:17:55.870Z,24.80
2024-01-19T19:20:23.608Z,23.43
2024-01-19T19:22:51.116Z,27.50
2024-01-19T19:25:18.403Z,23.03
2024-01-19T19:27:45.717Z,19.23
2024-01-19T19:30:15.267Z,23.20
2024-01-19T19:32:44.115Z,22.80
2024-01-19T19:35:11.624Z,21.10
2024-01-19T19:37:39.061Z,19.33
2024-01-19T19:40:09.381Z,19.37
2024-01-19T19:42:37.568Z,45.77
2024-01-19T19:45:05.609Z,25.67
2024-01-19T19:47:32.902Z,24.17
2024-01-19T19:50:00.326Z,27.43
2024-01-19T19:52:28.749Z,27.53
2024-01-19T19:54:55.978Z,23.13
2024-01-19T19:57:23.348Z,28.17
2024-01-19T19:59:50.595Z,27.40
2024-01-19T20:02:17.925Z,32.50
2024-01-19T20:04:45.284Z,35.53
2024-01-19T20:07:12.586Z,37.83
2024-01-19T20:09:39.964Z,26.93
2024-01-19T20:12:08.383Z,31.17
2024-01-19T20:14:36.091Z,33.40
2024-01-19T20:17:03.604Z,24.80
2024-01-19T20:19:33.287Z,29.07
2024-01-19T20:22:00.799Z,28.07
2024-01-19T20:24:28.501Z,29.50
2024-01-19T20:26:56.132Z,28.47
2024-01-19T20:29:23.559Z,28.30
2024-01-19T20:31:50.983Z,24.03
2024-01-19T20:34:18.602Z,25.13
2024-01-19T20:36:45.927Z,31.20
2024-01-19T20:39:13.969Z,22.50
2024-01-19T20:41:41.275Z,28.57
2024-01-19T20:44:08.702Z,30.03
2024-01-19T20:46:36.103Z,26.70
2024-01-19T20:49:03.457Z,23.60
2024-01-19T20:51:33.825Z,30.53
2024-01-19T20:54:01.093Z,25.30
2024-01-19T20:56:28.791Z,29.37
2024-01-19T20:58:57.033Z,25.00
2024-01-19T21:01:24.775Z,26.57
2024-01-19T21:03:52.622Z,25.07
2024-01-19T21:06:20.447Z,24.67
2024-01-19T21:08:47.687Z,21.57
2024-01-19T21:11:15.142Z,20.93
2024-01-19T21:13:43.592Z,26.97
2024-01-19T21:16:11.020Z,25.83
2024-01-19T21:18:39.027Z,29.57
2024-01-19T21:21:06.429Z,26.97
2024-01-19T21:23:34.127Z,23.77
2024-01-19T21:26:01.503Z,28.97
2024-01-19T21:28:28.747Z,23.43
2024-01-19T21:30:55.994Z,21.57
2024-01-19T21:33:23.295Z,23.40
2024-01-19T21:35:53.060Z,26.07
2024-01-19T21:38:22.951Z,25.10
2024-01-19T21:40:50.327Z,29.37
2024-01-19T21:43:17.619Z,27.73
2024-01-19T21:45:45.198Z,26.50
2024-01-19T21:48:12.794Z,26.20
2024-01-19T21:50:40.568Z,28.07
2024-01-19T21:53:07.914Z,33.50
2024-01-19T21:55:35.217Z,30.50
2024-01-19T21:58:02.615Z,28.07
